Larkspur, CO

1:18 AM MDT on October 25, 2014 (GMT -0600)
Meadow Lake | Change Station
CLOSE
Current Station
Airport
Location: Meadow Lake,
Elevation: 6873 ft
Nearby Weather Stations

Elev 6873 ft 38.94 °N, 104.57 °W | Updated 5 minutes ago

Clear
Clear
45 °F
Feels Like 42 °F
N
5
Wind Variable Wind from West

Today
High -- | Low -- °F
--% Chance of Precip.
Yesterday
High -- | Low -- °F
Precip. -- in
7:19 AM 6:06 PM
New Moon, 2% visible
Pressure 30.32 in
Visibility 10.0 miles
Clouds Clear
Windchill 42 °F
Dew Point 25 °F
Humidity 46%
Rainfall 0.00 in
Snow Depth Not available.
UV 0 out of 12
Pollen 3.10 out of 12
Ozone Good
PM2.5 Good
Flu Activity Sporadic
METAR KFLY 250713Z AUTO 27004KT 10SM CLR 07/M04 A3032 RMK AO2 T00701040

More Conditions Fewer Conditions

Pressure 30.32 in
Visibility 10.0 miles
Clouds Clear
Windchill 42 °F
Dew Point 25 °F
Humidity 46%
Rainfall 0.00 in
Snow Depth Not available.
UV 0 out of 12
Pollen 3.10 out of 12
Ozone Good
PM2.5 Good
Flu Activity Sporadic
METAR KFLY 250713Z AUTO 27004KT 10SM CLR 07/M04 A3032 RMK AO2 T00701040

More Conditions Fewer Conditions

10-Day Weather Forecast

Almanac

Astronomy

Oct. 25, 2014 Rise Set
Actual Time 7:19 AM MDT 6:06 PM MDT
Civil Twilight 6:52 AM MDT 6:34 PM MDT
Nautical Twilight 6:20 AM MDT 7:05 PM MDT
Astronomical Twilight 5:49 AM MDT 7:36 PM MDT
Moon 9:00 AM MDT 7:32 PM MDT
Length of Visible Light 11h 41m
Length of Day
10h 47m
Tomorrow will be 2m 20s shorter.
New Moon, 2% of the Moon is Illuminated
Today
New Moon
Oct 30
First Quarter
Nov 6
Full
Nov 14
Last Quarter
Nov 22
New

Today's Extremes

State Highs State Lows

Community

WunderPhotos

Upload Photos

1,764,789 photos uploaded!

Nearby

Air Quality

  Air Quality AQ Index Pollutant
Yesterday Good
OZONE
Yesterday Good
PM2.5
Current Good
OZONE
Current Good
PM2.5
Friday Good
PM2.5
Friday Good
OZONE
Saturday Good
PM2.5
Saturday Good
OZONE
Sunday Good
PM2.5
Sunday Good
OZONE
Monday Good
PM2.5
Monday Good
OZONE

Snow Depth

Station Depth Elevation
Glen Cove 1 in 11460 ft
Echo Lake 0 in 10600 ft
Jackwhacker Gulch 0 in 10960 ft
Michigan Creek 0 in 10600 ft
Grizzly Peak 0 in 11100 ft

Earthquake Activity

City Distance Mag. Time & Date
No recent earthquake activity has been reported nearby.
Minimum magnitude displayed is 2.5.

Coastal Water Temperatures

Place Temperature
No Stations Reporting

Nearby Weather Stations